Home > Products > Valid Products > TAF

000
FTUS42 KJAX 182000 AAA
TAFCRG
TAF AMD
KCRG 182053Z 1821/1918 18008KT P6SM VCSH SCT015 OVC035
      TEMPO 1821/1901 BKN025
     FM190600 18010KT 6SM BR VCSH OVC009=



000
FTUS42 KJAX 182000 AAA
TAFJAX
TAF AMD
KJAX 182049Z 1821/1918 18008KT 6SM -SHRA BKN015 OVC035
     FM190600 18010KT 6SM BR VCSH OVC009=



000
FTUS42 KJAX 182000 AAB
TAFGNV
TAF AMD
KGNV 182037Z 1821/1918 17010KT 6SM -SHRA SCT030 OVC100
      TEMPO 1821/1823 3SM SHRA BR BKN030
     FM190400 20010KT 3SM BR VCSH OVC008=



000
FTUS42 KJAX 181800 AAA
TAFGNV
TAF AMD
KGNV 181843Z 1819/1918 15010G18KT 6SM SHRA BKN020
     FM182300 18012G20KT 3SM SHRA BR OVC010
     FM190400 20010KT 3SM BR VCSH OVC008=



000
FTUS42 KJAX 181800 AAA
TAFSSI
TAF AMD
KSSI 181804Z 1818/1918 04015G25KT 2SM RA BR OVC007
      TEMPO 1818/1820 3/4SM TSRA OVC005CB
     FM182300 08016G26KT 2SM RA BR OVC006
     FM190300 14015G25KT 2SM RA BR BKN005=



000
FTUS42 KJAX 181700
TAFSSI
TAF
KSSI 181721Z 1818/1918 04015G25KT 2SM RA BR OVC005
     FM182300 08016G26KT 2SM RA BR OVC006
     FM190300 14015G25KT 2SM RA BR BKN005=



000
FTUS42 KJAX 181700
TAFCRG
TAF
KCRG 181721Z 1818/1918 12013G21KT 2SM RA BR OVC007
     FM190400 18013G20KT 3SM -SHRA BR BKN010=



000
FTUS42 KJAX 181700
TAFGNV
TAF
KGNV 181721Z 1818/1918 13010KT 2SM SHRA VCTS OVC008CB
     FM181900 15010G18KT 2SM TSRA OVC012CB
     FM182300 18012G20KT 3SM SHRA BR OVC010
     FM190400 20010KT 3SM BR VCSH OVC008=



000
FTUS42 KJAX 181700
TAFJAX
TAF
KJAX 181721Z 1818/1918 09013G20KT 3SM RA BR BKN008 OVC015
     FM181900 12012G19KT 2SM SHRA BR OVC007
     FM190400 18012KT 3SM -SHRA BR OVC009=



000
FTUS42 KJAX 181500 AAC
TAFSSI
TAF AMD
KSSI 181515Z 1815/1912 04014G22KT 4SM -SHRA BR OVC008
     FM182000 08016G26KT 2SM RA BR OVC006
     FM190200 14015G25KT 2SM RA BR BKN005=



000
FTUS42 KJAX 181500 AAA
TAFGNV
TAF AMD
KGNV 181514Z 1815/1912 08010KT P6SM OVC012
     FM181600 13011G20KT 2SM SHRA BR OVC007
     FM182300 20012G20KT 2SM SHRA BR OVC010=



000
FTUS42 KJAX 181500 AAB
TAFCRG
TAF AMD
KCRG 181510Z 1815/1912 08013G21KT 5SM -SHRA BR BKN020 OVC030
     FM181900 11016G25KT 2SM SHRA BR OVC007
     FM190400 16013G20KT 3SM -SHRA BR BKN010=



000
FTUS42 KJAX 181500 AAB
TAFJAX
TAF AMD
KJAX 181509Z 1815/1912 08013G21KT 5SM -SHRA BR BKN020 OVC035
     FM181900 11016G25KT 2SM SHRA BR OVC007
     FM190400 16013KT 3SM -SHRA BR BKN010=



000
FTUS42 KJAX 181400 AAB
TAFSSI
TAF AMD
KSSI 181428Z 1814/1912 04014G22KT 6SM BR VCSH SCT007 BKN020
      TEMPO 1814/1816 BKN007
     FM181700 05014G22KT 4SM -SHRA BR OVC008
     FM182000 08016G26KT 2SM RA BR OVC006
     FM190200 14015G25KT 2SM RA BR BKN005=



000
FTUS42 KJAX 181300 AAA
TAFJAX
TAF AMD
KJAX 181310Z 1813/1912 05012KT P6SM VCSH SCT007 BKN035
     FM181500 08016G25KT 5SM -SHRA BR SCT010 BKN015 OVC040
     FM181900 11016G25KT 2SM SHRA BR OVC007
     FM190400 16013KT 3SM -SHRA BR BKN010=



000
FTUS42 KJAX 181300 AAA
TAFCRG
TAF AMD
KCRG 181309Z 1813/1912 06010KT P6SM OVC035
     FM181500 08018G26KT 5SM -SHRA BR SCT010 BKN015 OVC040
     FM181900 11016G25KT 2SM SHRA BR OVC007
     FM190400 16013G20KT 3SM -SHRA BR BKN010=



000
FTUS42 KJAX 181100 AAA
TAFSSI
TAF AMD
KSSI 181141Z 1812/1912 04014KT P6SM VCSH SCT007 BKN015
      TEMPO 1812/1816 BKN006
     FM181700 05014G22KT 4SM -SHRA BR OVC008
     FM182000 08016G26KT 2SM RA BR OVC006
     FM190200 14015G25KT 2SM RA BR BKN005=



000
FTUS42 KJAX 181100
TAFSSI
TAF
KSSI 181121Z 1812/1912 04015G25KT P6SM VCSH SCT007 BKN015
      TEMPO 1812/1816 4SM -SHRA BKN006
     FM182000 08016G26KT 2SM RA BR OVC006
     FM190200 14015G25KT 2SM RA BR BKN005=



000
FTUS42 KJAX 181100
TAFGNV
TAF
KGNV 181121Z 1812/1912 06007KT P6SM SCT020 BKN050
     FM181400 08010KT P6SM SCT010 BKN025
      TEMPO 1814/1816 4SM SHRA BKN010
     FM181600 13011G20KT 2SM SHRA BR OVC007
     FM182300 20012G20KT 2SM SHRA BR OVC010=



000
FTUS42 KJAX 181100
TAFJAX
TAF
KJAX 181121Z 1812/1912 05012KT P6SM SCT007 BKN025
      TEMPO 1812/1814 BKN007
     FM181400 08016G25KT 5SM -SHRA BR SCT010 BKN015 OVC040
     FM181900 11016G25KT 2SM SHRA BR OVC007
     FM190400 16013KT 3SM -SHRA BR BKN010=



000
FTUS42 KJAX 181100
TAFCRG
TAF
KCRG 181121Z 1812/1912 06012KT P6SM SCT015 BKN035
      TEMPO 1812/1814 BKN015
     FM181500 08018G26KT 5SM -SHRA BR SCT010 BKN015 OVC040
     FM181900 11016G25KT 2SM SHRA BR OVC007
     FM190400 16013G20KT 3SM -SHRA BR BKN010=



000
FTUS42 KJAX 181000 AAA
TAFSSI
TAF AMD
KSSI 181033Z 1811/1906 04013G20KT P6SM SCT015 OVC045
      TEMPO 1811/1814 -SHRA BKN006
     FM181400 07017G26KT 5SM -RA BR SCT008 OVC009
     FM182000 08016G26KT 2SM RA BR OVC007
     FM190200 14015G25KT 2SM RA BR BKN005=



000
FTUS42 KJAX 181000 AAC
TAFGNV
TAF AMD
KGNV 181032Z 1811/1906 07007KT P6SM VCSH SCT015 BKN060
      TEMPO 1811/1814 5SM SHRA BKN010
     FM181400 09011KT 5SM -RA BR OVC010
     FM181600 13011G20KT 2SM RA BR OVC007
     FM182300 20012G20KT 2SM RA BR OVC010=



000
FTUS42 KJAX 181000 AAB
TAFCRG
TAF AMD
KCRG 181026Z 1810/1906 06010KT P6SM VCSH SCT010 OVC040
      TEMPO 1810/1814 5SM SHRA BR BKN008
     FM181400 08018G26KT 5SM -RA BR SCT010 BKN015 OVC040
     FM181900 11016G25KT 2SM RA BR OVC007
     FM190400 16013G20KT 3SM -RA BR BKN010=



000
FTUS42 KJAX 181000 AAB
TAFJAX
TAF AMD
KJAX 181025Z 1810/1906 05010KT P6SM VCSH SCT010 BKN060
      TEMPO 1810/1814 SHRA BKN006
     FM181400 08016G25KT 5SM -RA BR SCT010 BKN015 OVC040
     FM181900 11016G25KT 2SM RA BR OVC007
     FM190400 16013KT 3SM -RA BR BKN010=



000
FTUS42 KJAX 180800 AAB
TAFGNV
TAF AMD
KGNV 180817Z 1808/1906 07007KT P6SM VCSH SCT015 BKN060
      TEMPO 1808/1812 5SM SHRA BKN015
     FM181200 09011KT 5SM -RA BR OVC010
     FM181600 13011G20KT 2SM RA BR OVC007
     FM182300 20012G20KT 2SM RA BR OVC010=



000
FTUS42 KJAX 180800 AAA
TAFCRG
TAF AMD
KCRG 180814Z 1808/1906 07010KT P6SM VCSH SCT015 BKN020 OVC060
      TEMPO 1808/1812 5SM SHRA BR BKN012
     FM181400 08018G26KT 5SM -RA BR SCT010 BKN015 OVC040
     FM181900 11016G25KT 2SM RA BR OVC007
     FM190400 16013G20KT 3SM -RA BR BKN010=



000
FTUS42 KJAX 180800 AAA
TAFJAX
TAF AMD
KJAX 180812Z 1808/1906 06012KT P6SM VCSH SCT015 BKN020 OVC060
      TEMPO 1808/1812 5SM SHRA BR BKN012
     FM181400 08016G25KT 5SM -RA BR SCT010 BKN015 OVC040
     FM181900 11016G25KT 2SM RA BR OVC007
     FM190400 16013KT 3SM -RA BR BKN010=



000
FTUS42 KJAX 180500 AAA
TAFGNV
TAF AMD
KGNV 180544Z 1806/1906 07007KT P6SM VCSH BKN030
      TEMPO 1806/1809 4SM SHRA BKN015
     FM181100 09011KT 5SM -RA BR OVC010
     FM181600 13011G20KT 2SM RA BR OVC007
     FM182300 20012G20KT 2SM RA BR OVC010=



000
FTUS42 KJAX 180500
TAFSSI
TAF
KSSI 180527Z 1806/1906 06013G20KT P6SM SCT015 OVC060
      TEMPO 1808/1812 -SHRA BKN010
     FM181200 07017G26KT 5SM -RA BR SCT008 OVC009
     FM182000 08016G26KT 2SM RA BR OVC007
     FM190200 14015G25KT 2SM RA BR BKN005=



000
FTUS42 KJAX 180500
TAFCRG
TAF
KCRG 180527Z 1806/1906 07013G20KT P6SM SCT012 SCT030 BKN060
     FM181400 09017G26KT 5SM -RA BR OVC009
     FM181900 12018G26KT 2SM RA BR OVC007
     FM190400 16013G20KT 3SM -RA BR BKN010=



000
FTUS42 KJAX 180500
TAFJAX
TAF
KJAX 180527Z 1806/1906 06012KT P6SM VCSH SCT008 BKN012 OVC045
      TEMPO 1806/1807 -SHRA BKN006
     FM181400 08016G25KT 5SM -RA BR OVC008
     FM181900 11016G25KT 2SM RA BR OVC007
     FM190400 16013KT 3SM -RA BR BKN010=



000
FTUS42 KJAX 180500
TAFGNV
TAF
KGNV 180527Z 1806/1906 07007KT P6SM BKN030
     FM181100 09011KT 5SM -RA BR OVC010
     FM181600 13011G20KT 2SM RA BR OVC007
     FM182300 20012G20KT 2SM RA BR OVC010=



000
FTUS42 KJAX 180400 AAB
TAFJAX
TAF AMD
KJAX 180446Z 1805/1824 06012KT P6SM VCSH SCT008 BKN012 OVC045
      TEMPO 1805/1807 -SHRA BKN006
     FM181400 08016G25KT 5SM -RA BR OVC008
     FM181900 11016G25KT 2SM RA BR OVC007=



000
FTUS42 KJAX 180300 AAB
TAFCRG
TAF AMD
KCRG 180347Z 1804/1824 06012G20KT P6SM SCT012 SCT030 BKN060
      TEMPO 1804/1806 5SM -SHRA BKN010
     FM181400 09017G26KT 5SM -RA BR OVC009
     FM181900 12016G25KT 2SM RA BR OVC007=



000
FTUS42 KJAX 180200 AAA
TAFJAX
TAF AMD
KJAX 180212Z 1802/1824 06013G21KT P6SM SCT015 OVC025
      TEMPO 1802/1803 -SHRA SCT008 OVC015
     FM180300 06012G20KT P6SM OVC015
      TEMPO 1803/1805 5SM -SHRA OVC008
     FM181400 08016G25KT 5SM -RA BR OVC009
     FM181900 11016G25KT 2SM RA BR OVC007=



000
FTUS42 KJAX 180200 AAA
TAFCRG
TAF AMD
KCRG 180210Z 1802/1824 05013G21KT P6SM SCT008 BKN025
     FM180300 05012G20KT P6SM SCT008 OVC015
      TEMPO 1803/1805 5SM -SHRA OVC008
     FM181400 09017G26KT 5SM -RA BR OVC009
     FM181900 12016G25KT 2SM RA BR OVC007=



000
FTUS42 KJAX 180100 AAA
TAFSSI
TAF AMD
KSSI 180100Z 1801/1824 05013G20KT P6SM SCT020 BKN050
      TEMPO 1801/1803 OVC020
     FM180300 06013G20KT P6SM OVC015
     FM181400 07017G26KT 5SM -RA BR OVC009
     FM182000 07016G26KT 2SM RA BR OVC007=



000
FTUS42 KJAX 172300
TAFSSI
TAF
KSSI 172325Z 1800/1824 05014G22KT P6SM OVC015
     FM181400 07017G26KT 5SM -RA BR OVC009
     FM182000 07016G26KT 2SM RA BR OVC007=



000
FTUS42 KJAX 172300
TAFGNV
TAF
KGNV 172325Z 1800/1824 07010KT P6SM BKN025
     FM180200 08009KT P6SM OVC015
     FM181200 09012G20KT 5SM -RA BR OVC009
     FM181700 12011KT 2SM RA BR OVC007
     FM182200 17009KT 2SM RA BR OVC007=



000
FTUS42 KJAX 172300
TAFJAX
TAF
KJAX 172325Z 1800/1824 06013KT P6SM OVC015
      TEMPO 1800/1803 2SM -SHRA OVC008
     FM181400 08016G25KT 5SM -RA BR OVC009
     FM181900 11016G25KT 2SM RA BR OVC007=



000
FTUS42 KJAX 172300
TAFCRG
TAF
KCRG 172325Z 1800/1824 06014G22KT P6SM OVC015
      TEMPO 1800/1803 5SM -SHRA OVC007
     FM181400 09017G26KT 5SM -RA BR OVC009
     FM181900 12016G25KT 2SM RA BR OVC007=



000
FTUS42 KJAX 172200 AAC
TAFJAX
TAF AMD
KJAX 172223Z 1722/1818 06017G24KT P6SM OVC015
      TEMPO 1722/1802 3SM -SHRA OVC009
     FM180200 06013KT P6SM OVC015
     FM181400 08016G25KT 5SM -RA BR OVC009=



000
FTUS42 KJAX 172200 AAA
TAFSSI
TAF AMD
KSSI 172220Z 1722/1818 05014G24KT P6SM OVC015
     FM181400 07017G26KT 5SM -RA BR OVC009=



000
FTUS42 KJAX 172200 AAB
TAFJAX
TAF AMD
KJAX 172218Z 1722/1818 06017G24KT P6SM OVC015
      TEMPO 1723/1802 5SM -SHRA
     FM180200 06013KT P6SM OVC015
     FM181400 08016G25KT 5SM -RA BR OVC009=



000
FTUS42 KJAX 172200 AAB
TAFCRG
TAF AMD
KCRG 172218Z 1722/1818 06017G24KT P6SM OVC015
      TEMPO 1723/1802 5SM -SHRA OVC009
     FM180200 06013G19KT P6SM OVC015
     FM181400 09017G26KT 5SM -RA BR OVC009=



000
FTUS42 KJAX 172100 AAA
TAFJAX
TAF AMD
KJAX 172105Z 1721/1818 06017G27KT P6SM OVC015
     FM180100 06010KT P6SM BKN025
     FM180800 07009KT P6SM VCSH OVC015
     FM181400 08013G23KT 5SM -RA BR OVC010=



000
FTUS42 KJAX 172100 AAA
TAFCRG
TAF AMD
KCRG 172105Z 1721/1818 05016G26KT P6SM BKN015
     FM180100 07011G18KT P6SM BKN025
     FM180800 08010KT P6SM VCSH OVC015
     FM181400 09015G25KT 5SM -RA BR OVC010=



000
FTUS42 KJAX 171700
TAFGNV
TAF
KGNV 171720Z 1718/1818 06012G22KT P6SM BKN020
     FM180100 06011KT P6SM BKN015
     FM180800 05010KT P6SM VCSH OVC010
     FM181300 09011G18KT 5SM -RA BR OVC010=



000
FTUS42 KJAX 171700
TAFJAX
TAF
KJAX 171720Z 1718/1818 06016G26KT P6SM OVC015
     FM172100 06014G24KT P6SM BKN025
     FM180100 06010KT P6SM BKN025
     FM180800 07009KT P6SM VCSH OVC015
     FM181400 08013G23KT 5SM -RA BR OVC010=



000
FTUS42 KJAX 171700
TAFCRG
TAF
KCRG 171720Z 1718/1818 05016G26KT P6SM BKN015
     FM172100 05014G24KT P6SM BKN025
     FM180100 07011G18KT P6SM BKN025
     FM180800 08010KT P6SM VCSH OVC015
     FM181400 09015G25KT 5SM -RA BR OVC010=



000
FTUS42 KJAX 171700
TAFSSI
TAF
KSSI 171720Z 1718/1818 03015G25KT P6SM OVC012
     FM172100 05014G24KT P6SM BKN015
     FM180100 06012G20KT P6SM OVC025
     FM180800 07012G20KT P6SM VCSH OVC015
     FM181400 07016G26KT 5SM -RA BR OVC010=



000
FTUS42 KJAX 171500 AAB
TAFGNV
TAF AMD
KGNV 171522Z 1715/1812 06013G23KT P6SM BKN015
     FM172100 06013G23KT P6SM BKN030
     FM180100 06011KT P6SM BKN025
     FM180800 06009KT P6SM VCSH OVC020=



000
FTUS42 KJAX 171400 AAA
TAFCRG
TAF AMD
KCRG 171406Z 1714/1812 05016G25KT P6SM OVC012
     FM171600 06015G25KT P6SM BKN020
     FM172100 06014G24KT P6SM BKN030
     FM180100 06010KT P6SM BKN025
     FM180800 07009KT P6SM VCSH OVC020=



000
FTUS42 KJAX 171400 AAA
TAFJAX
TAF AMD
KJAX 171405Z 1714/1812 05013G20KT P6SM OVC015
     FM171600 06015G25KT P6SM BKN020
     FM172100 06014G24KT P6SM BKN030
     FM180100 06010KT P6SM BKN025
     FM180800 06009KT P6SM VCSH OVC020=



000
FTUS42 KJAX 171300 AAA
TAFGNV
TAF AMD
KGNV 171333Z 1714/1812 03009KT P6SM OVC010
     FM171500 06013G23KT P6SM BKN020
     FM172100 06013G23KT P6SM BKN030
     FM180100 06011KT P6SM BKN025
     FM180800 06009KT P6SM VCSH OVC020=



000
FTUS42 KJAX 171100
TAFSSI
TAF
KSSI 171120Z 1712/1812 04014G22KT P6SM OVC018
     FM171600 05015G25KT P6SM SCT020 BKN250
      TEMPO 1716/1718 BKN020
     FM172100 05014G24KT P6SM BKN030
     FM180100 06012G20KT P6SM BKN025
     FM180800 06012G20KT P6SM VCSH OVC020=



000
FTUS42 KJAX 171100
TAFGNV
TAF
KGNV 171120Z 1712/1812 03009KT P6SM OVC025
     FM171500 06013G23KT P6SM SCT025 BKN250
      TEMPO 1716/1718 BKN025
     FM172100 06013G23KT P6SM BKN030
     FM180100 06011KT P6SM BKN025
     FM180800 06009KT P6SM VCSH OVC020=



000
FTUS42 KJAX 171100
TAFJAX
TAF
KJAX 171120Z 1712/1812 05013G20KT P6SM OVC015
     FM171600 06015G25KT P6SM SCT020 BKN250
      TEMPO 1716/1718 BKN020
     FM172100 06014G24KT P6SM BKN030
     FM180100 06010KT P6SM BKN025
     FM180800 06009KT P6SM VCSH OVC020=



000
FTUS42 KJAX 171100
TAFCRG
TAF
KCRG 171120Z 1712/1812 05013G22KT P6SM OVC015
     FM171600 06015G25KT P6SM SCT020 BKN250
      TEMPO 1716/1718 BKN020
     FM172100 06014G24KT P6SM BKN030
     FM180100 06010KT P6SM BKN025
     FM180800 07009KT P6SM VCSH OVC020=



000
FTUS42 KJAX 170600 AAA
TAFGNV
TAF AMD
KGNV 170653Z 1707/1806 03009KT P6SM SCT020 BKN030
      TEMPO 1708/1712 BKN020
     FM171300 05013KT P6SM BKN025
     FM171600 06014G24KT P6SM SCT030 BKN250
     FM172100 07013G23KT P6SM BKN030
     FM180100 06010KT P6SM BKN025=



000
FTUS42 KJAX 170600 AAA
TAFCRG
TAF AMD
KCRG 170652Z 1707/1806 04010G18KT P6SM SCT018 BKN030
      TEMPO 1708/1712 BKN018
     FM171300 06012G22KT P6SM BKN025
     FM171700 06015G25KT P6SM SCT030 BKN250
     FM172100 07014G24KT P6SM BKN030
     FM180100 06011KT P6SM BKN025=



000
FTUS42 KJAX 170500
TAFCRG
TAF
KCRG 170521Z 1706/1806 04010KT P6SM BKN018
     FM171300 06013G20KT P6SM BKN025
     FM171700 06015G25KT P6SM SCT030 BKN250
     FM172100 07014G24KT P6SM BKN030
     FM180100 06011KT P6SM BKN025=



000
FTUS42 KJAX 170500
TAFJAX
TAF
KJAX 170521Z 1706/1806 04010KT P6SM BKN018
     FM171300 06013G20KT P6SM BKN025
     FM171700 06015G25KT P6SM SCT030 BKN250
     FM172100 07014G24KT P6SM BKN030
     FM180100 06010KT P6SM BKN025=



000
FTUS42 KJAX 170500
TAFSSI
TAF
KSSI 170521Z 1706/1806 04012G20KT P6SM BKN020
     FM171300 05014G24KT P6SM VCSH BKN025
     FM171600 05015G25KT P6SM SCT030 BKN250
     FM172100 05014G24KT P6SM VCSH BKN030
     FM180100 05012G20KT P6SM VCSH BKN025=



000
FTUS42 KJAX 170500
TAFGNV
TAF
KGNV 170521Z 1706/1806 03008KT P6SM BKN018
     FM171300 05013KT P6SM BKN025
     FM171600 06014G24KT P6SM SCT030 BKN250
     FM172100 07013G23KT P6SM BKN030
     FM180100 06010KT P6SM BKN025=



000
FTUS42 KJAX 170400 AAA
TAFGNV
TAF AMD
KGNV 170407Z 1704/1724 04007KT P6SM BKN018
      TEMPO 1706/1710 SCT018
     FM171400 05016G24KT P6SM BKN025=



000
FTUS42 KJAX 170400 AAC
TAFJAX
TAF AMD
KJAX 170404Z 1704/1724 04010KT P6SM BKN018
     FM171300 06018G26KT P6SM BKN025=



000
FTUS42 KJAX 170200 AAB
TAFCRG
TAF AMD
KCRG 170256Z 1703/1724 04012KT P6SM OVC018
     FM170400 05010KT P6SM SCT018
      TEMPO 1704/1707 BKN018
     FM171300 05019G27KT P6SM BKN025=



000
FTUS42 KJAX 170200 AAB
TAFJAX
TAF AMD
KJAX 170228Z 1702/1724 04010KT P6SM SCT025
      TEMPO 1702/1706 BKN025
     FM171300 06018G26KT P6SM BKN025=



000
FTUS42 KJAX 170200 AAA
TAFJAX
TAF AMD
KJAX 170206Z 1702/1724 04010KT P6SM SCT030
      TEMPO 1703/1706 BKN030
     FM171300 06018G26KT P6SM BKN025=



000
FTUS42 KJAX 170200 AAA
TAFCRG
TAF AMD
KCRG 170205Z 1702/1724 04012KT P6SM OVC020
     FM170400 05010KT P6SM SCT025
      TEMPO 1704/1707 BKN025
     FM171300 05019G27KT P6SM BKN025=



000
FTUS42 KJAX 170200 AAA
TAFSSI
TAF AMD
KSSI 170203Z 1702/1724 05012G21KT P6SM SCT025
      TEMPO 1702/1705 BKN025
     FM171400 05020G29KT P6SM BKN025=



000
FTUS42 KJAX 162300
TAFGNV
TAF
KGNV 162328Z 1700/1724 06012KT P6SM OVC025
     FM170200 07009KT P6SM SCT025
      TEMPO 1702/1704 BKN025
     FM171400 05016G24KT P6SM BKN025=



000
FTUS42 KJAX 162300
TAFCRG
TAF
KCRG 162328Z 1700/1724 05014G21KT P6SM OVC025
     FM170200 06008G15KT P6SM SCT025
      TEMPO 1702/1704 BKN025
     FM171300 05019G27KT P6SM BKN025=



000
FTUS42 KJAX 162300
TAFJAX
TAF
KJAX 162328Z 1700/1724 05013KT P6SM OVC030
     FM170300 06008KT P6SM SCT030
      TEMPO 1703/1705 BKN030
     FM171300 06018G26KT P6SM BKN025=



000
FTUS42 KJAX 162300
TAFSSI
TAF
KSSI 162328Z 1700/1724 05014G22KT P6SM SCT025
      TEMPO 1700/1701 BKN025
     FM171400 05020G29KT P6SM BKN025=



000
FTUS42 KJAX 162200 AAB
TAFGNV
TAF AMD
KGNV 162223Z 1622/1718 06013G22KT P6SM BKN035
      TEMPO 1622/1702 BKN025
     FM170200 03010KT P6SM BKN035
     FM171300 05015G23KT P6SM BKN020=



000
FTUS42 KJAX 162200 AAB
TAFJAX
TAF AMD
KJAX 162208Z 1622/1718 04015G23KT P6SM OVC025
     FM170000 04010KT P6SM BKN025
     FM171300 05015G25KT P6SM BKN025=



000
FTUS42 KJAX 162000 AAA
TAFGNV
TAF AMD
KGNV 162004Z 1620/1718 06013G22KT P6SM BKN035
     FM170200 03010KT P6SM BKN035
     FM171300 05015G23KT P6SM BKN020=



000
FTUS42 KJAX 162000 AAA
TAFJAX
TAF AMD
KJAX 162003Z 1620/1718 04015G22KT P6SM SCT025 BKN035
      TEMPO 1620/1624 BKN025
     FM170000 04010KT P6SM BKN025
     FM171300 05015G25KT P6SM BKN025=



000
FTUS42 KJAX 161700
TAFGNV
TAF
KGNV 161723Z 1618/1718 06013G22KT P6SM BKN030
     FM170100 03010KT P6SM BKN035
     FM171300 05015G23KT P6SM BKN020=



000
FTUS42 KJAX 161700
TAFJAX
TAF
KJAX 161723Z 1618/1718 04015G22KT P6SM SCT025 BKN030
     FM170100 04010KT P6SM BKN025
     FM171300 05015G25KT P6SM BKN025=



000
FTUS42 KJAX 161700
TAFSSI
TAF
KSSI 161723Z 1618/1718 04015G25KT P6SM BKN025
     FM170100 05012KT P6SM BKN025
     FM171300 05017G27KT P6SM BKN030=



000
FTUS42 KJAX 161700
TAFCRG
TAF
KCRG 161723Z 1618/1718 05015G25KT P6SM BKN030
     FM170100 04011KT P6SM BKN025
     FM171300 05017G27KT P6SM BKN025=



000
FTUS42 KJAX 161400 AAB
TAFGNV
TAF AMD
KGNV 161447Z 1615/1712 05015G25KT P6SM SCT020 BKN035
     FM170100 07010KT P6SM BKN035=



000
FTUS42 KJAX 161400 AAA
TAFJAX
TAF AMD
KJAX 161445Z 1615/1712 03015G25KT P6SM SCT025 BKN035
     FM170100 04010KT P6SM BKN025=



000
FTUS42 KJAX 161400 AAB
TAFCRG
TAF AMD
KCRG 161444Z 1615/1712 05015G25KT P6SM BKN035
     FM170100 04011KT P6SM BKN025=



000
FTUS42 KJAX 161300 AAA
TAFSSI
TAF AMD
KSSI 161306Z 1613/1712 04017G27KT P6SM BKN030
     FM170100 05011KT P6SM BKN025=



000
FTUS42 KJAX 161200 AAA
TAFGNV
TAF AMD
KGNV 161251Z 1613/1712 02010KT P6SM BKN018
     FM161500 05015G25KT P6SM BKN035
     FM170100 07010KT P6SM BKN035=



000
FTUS42 KJAX 161200 AAA
TAFJAX
TAF AMD
KJAX 161249Z 1613/1712 01010KT P6SM SCT020
     FM161400 05015G25KT P6SM BKN025
     FM170100 04010KT P6SM BKN025=



000
FTUS42 KJAX 161100 AAA
TAFCRG
TAF AMD
KCRG 161139Z 1612/1712 36009G16KT P6SM BKN020
     FM161400 04015G25KT P6SM BKN025
     FM170100 04011KT P6SM BKN025=



000
FTUS42 KJAX 161100
TAFJAX
TAF
KJAX 161120Z 1612/1712 01010KT P6SM BKN025
     FM161400 05015G25KT P6SM BKN025
     FM170100 04010KT P6SM BKN025=



000
FTUS42 KJAX 161100
TAFCRG
TAF
KCRG 161120Z 1612/1712 36012G18KT P6SM SCT020
     FM161400 04015G25KT P6SM BKN025
     FM170100 04011KT P6SM BKN025=



000
FTUS42 KJAX 161100
TAFSSI
TAF
KSSI 161120Z 1612/1712 01012KT P6SM BKN035
     FM161400 04017G27KT P6SM BKN030
     FM170100 05011KT P6SM BKN025=



000
FTUS42 KJAX 161100
TAFGNV
TAF
KGNV 161120Z 1612/1712 35012KT P6SM SCT020
     FM161500 05015G25KT P6SM BKN035
     FM170100 07010KT P6SM BKN035=



000
FTUS42 KJAX 161000 AAA
TAFSSI
TAF AMD
KSSI 161026Z 1610/1706 01012KT P6SM BKN035
     FM161400 04017G27KT P6SM BKN030
     FM170100 05011KT P6SM BKN025=



000
FTUS42 KJAX 161000 AAA
TAFJAX
TAF AMD
KJAX 161024Z 1610/1706 01010KT P6SM BKN025
     FM161400 05015G25KT P6SM BKN025
     FM170100 04010KT P6SM BKN025=



000
FTUS42 KJAX 160900 AAA
TAFCRG
TAF AMD
KCRG 160939Z 1610/1706 36012G18KT P6SM SCT020
     FM161400 04015G25KT P6SM BKN025
     FM170100 04011KT P6SM BKN025=



000
FTUS42 KJAX 160500 RRA
TAFSSI
TAF
KSSI 160546Z 1606/1706 35014G22KT P6SM SCT020
     FM161500 04017G27KT P6SM BKN025
     FM170100 05011KT P6SM BKN025=



000
FTUS42 KJAX 160500 RRA
TAFGNV
TAF
KGNV 160546Z 1606/1706 35012KT P6SM SCT020
     FM161500 05015G25KT P6SM BKN035
     FM170100 07010KT P6SM BKN035=



000
FTUS42 KJAX 160500 RRA
TAFJAX
TAF
KJAX 160546Z 1606/1706 35012G18KT P6SM SCT020
     FM161400 05015G25KT P6SM BKN025
     FM170100 04010KT P6SM BKN025=



000
FTUS42 KJAX 160500 RRA
TAFCRG
TAF
KCRG 160546Z 1606/1706 35012G18KT P6SM SCT020
     FM161300 05015G25KT P6SM BKN025
     FM170100 04011KT P6SM BKN025=



000
FTUS42 KJAX 160300 AAA
TAFGNV
TAF AMD
KGNV 160350Z 1604/1624 32010KT P6SM BKN025
     FM160500 35012KT P6SM SCT020
     FM161300 05015G25KT P6SM BKN025=



000
FTUS42 KJAX 160300 AAA
TAFCRG
TAF AMD
KCRG 160349Z 1604/1624 32015G20KT P6SM OVC025
     FM160500 35012G18KT P6SM SCT020
     FM161300 05015G25KT P6SM BKN025=



000
FTUS42 KJAX 160300 AAA
TAFJAX
TAF AMD
KJAX 160348Z 1604/1624 31010KT P6SM OVC025
     FM160500 35012G18KT P6SM SCT020
     FM161300 05015G25KT P6SM BKN025=



000
FTUS42 KJAX 152300 RRA
TAFGNV
TAF
KGNV 152341Z 1600/1624 30013G23KT P6SM BKN015 OVC025
     FM160400 35012KT P6SM SCT020
     FM161300 05015G25KT P6SM BKN025=



000
FTUS42 KJAX 152300 RRA
TAFCRG
TAF
KCRG 152341Z 1600/1624 30015G25KT P6SM BKN015 OVC025
     FM160300 35012G18KT P6SM SCT020
     FM161300 05015G25KT P6SM BKN025=



000
FTUS42 KJAX 152300 RRA
TAFSSI
TAF
KSSI 152341Z 1600/1624 30015G25KT P6SM BKN012 OVC025
     FM160300 35014G22KT P6SM SCT020
     FM161300 05017G27KT P6SM BKN025=



000
FTUS42 KJAX 152300 RRA
TAFJAX
TAF
KJAX 152341Z 1600/1624 30015G25KT P6SM BKN015 OVC025
     FM160300 35012G18KT P6SM SCT020
     FM161300 05015G25KT P6SM BKN025=



000
FTUS42 KJAX 152200 AAB
TAFGNV
TAF AMD
KGNV 152204Z 1522/1618 30015G25KT P6SM BKN010 OVC020
     FM160300 32012KT P6SM SCT010
     FM161400 05014G22KT P6SM SCT025=



000
FTUS42 KJAX 152100 AAC
TAFCRG
TAF AMD
KCRG 152200Z 1522/1618 30015G25KT P6SM BKN015 OVC025
     FM160400 34012KT P6SM SCT020
     FM161200 05015G25KT P6SM BKN025=



000
FTUS42 KJAX 152100 AAC
TAFJAX
TAF AMD
KJAX 152158Z 1522/1618 30015G25KT P6SM BKN015 OVC025
     FM160300 33012KT P6SM SCT020
     FM161200 04015G25KT P6SM SCT025 BKN040=



000
FTUS42 KJAX 152100 AAC
TAFSSI
TAF AMD
KSSI 152110Z 1521/1618 30013G23KT P6SM BKN012 OVC025
     FM160300 32012G20KT P6SM SKC
     FM161400 05017G27KT P6SM SCT025=



    US Dept of Commerce
    National Oceanic and Atmospheric Administration
    National Weather Service
    1325 East West Highway
    Silver Spring, MD 20910
    Page Author: NWS Internet Services Team
Disclaimer
Information Quality
Credits
Glossary
Privacy Policy
Freedom of Information Act (FOIA)
About Us
Career Opportunities